sensor_id;sensor_type;location;lat;lon;timestamp;P1;durP1;ratioP1;P2;durP2;ratioP2
16272;SDS011;8244;50.044;9.006;2023-05-16T00:02:25;21.25;;;15.77;;
16272;SDS011;8244;50.044;9.006;2023-05-16T00:07:27;22.80;;;15.80;;
16272;SDS011;8244;50.044;9.006;2023-05-16T00:12:30;19.95;;;14.23;;
16272;SDS011;8244;50.044;9.006;2023-05-16T00:17:33;20.10;;;14.25;;
16272;SDS011;8244;50.044;9.006;2023-05-16T00:22:34;17.67;;;14.52;;
16272;SDS011;8244;50.044;9.006;2023-05-16T00:27:37;19.65;;;14.50;;
16272;SDS011;8244;50.044;9.006;2023-05-16T00:32:40;20.25;;;15.13;;
16272;SDS011;8244;50.044;9.006;2023-05-16T00:37:42;22.27;;;16.60;;
16272;SDS011;8244;50.044;9.006;2023-05-16T00:42:45;19.88;;;15.07;;
16272;SDS011;8244;50.044;9.006;2023-05-16T00:47:46;22.80;;;16.90;;
16272;SDS011;8244;50.044;9.006;2023-05-16T00:52:48;23.98;;;18.08;;
16272;SDS011;8244;50.044;9.006;2023-05-16T00:57:52;24.80;;;18.60;;
16272;SDS011;8244;50.044;9.006;2023-05-16T01:02:53;23.33;;;18.10;;
16272;SDS011;8244;50.044;9.006;2023-05-16T01:07:56;27.50;;;19.55;;
16272;SDS011;8244;50.044;9.006;2023-05-16T01:13:00;26.52;;;18.55;;
16272;SDS011;8244;50.044;9.006;2023-05-16T01:18:14;27.25;;;19.33;;
16272;SDS011;8244;50.044;9.006;2023-05-16T01:23:26;24.33;;;18.42;;
16272;SDS011;8244;50.044;9.006;2023-05-16T01:28:38;23.92;;;18.15;;
16272;SDS011;8244;50.044;9.006;2023-05-16T01:33:42;25.00;;;19.25;;
16272;SDS011;8244;50.044;9.006;2023-05-16T01:38:44;25.48;;;18.25;;
16272;SDS011;8244;50.044;9.006;2023-05-16T01:43:58;23.38;;;16.80;;
16272;SDS011;8244;50.044;9.006;2023-05-16T01:49:03;26.63;;;17.38;;
16272;SDS011;8244;50.044;9.006;2023-05-16T01:54:17;21.33;;;16.48;;
16272;SDS011;8244;50.044;9.006;2023-05-16T01:59:22;28.20;;;20.73;;
16272;SDS011;8244;50.044;9.006;2023-05-16T02:04:25;24.63;;;17.92;;
16272;SDS011;8244;50.044;9.006;2023-05-16T02:09:26;26.52;;;17.85;;
16272;SDS011;8244;50.044;9.006;2023-05-16T02:14:29;26.30;;;18.67;;
16272;SDS011;8244;50.044;9.006;2023-05-16T02:19:31;26.30;;;18.95;;
16272;SDS011;8244;50.044;9.006;2023-05-16T02:24:33;21.50;;;16.73;;
16272;SDS011;8244;50.044;9.006;2023-05-16T02:29:36;28.80;;;18.55;;
16272;SDS011;8244;50.044;9.006;2023-05-16T02:34:38;23.63;;;17.45;;
16272;SDS011;8244;50.044;9.006;2023-05-16T02:39:40;26.48;;;19.95;;
16272;SDS011;8244;50.044;9.006;2023-05-16T02:44:43;23.80;;;18.05;;
16272;SDS011;8244;50.044;9.006;2023-05-16T02:49:45;29.48;;;20.88;;
16272;SDS011;8244;50.044;9.006;2023-05-16T02:54:47;23.45;;;17.65;;
16272;SDS011;8244;50.044;9.006;2023-05-16T02:59:50;25.20;;;17.77;;
16272;SDS011;8244;50.044;9.006;2023-05-16T03:04:51;25.67;;;19.38;;
16272;SDS011;8244;50.044;9.006;2023-05-16T03:09:53;29.10;;;19.60;;
16272;SDS011;8244;50.044;9.006;2023-05-16T03:15:05;29.85;;;21.10;;
16272;SDS011;8244;50.044;9.006;2023-05-16T03:20:08;24.40;;;15.85;;
16272;SDS011;8244;50.044;9.006;2023-05-16T03:25:11;30.05;;;21.42;;
16272;SDS011;8244;50.044;9.006;2023-05-16T03:30:14;26.65;;;17.92;;
16272;SDS011;8244;50.044;9.006;2023-05-16T03:35:16;28.65;;;18.45;;
16272;SDS011;8244;50.044;9.006;2023-05-16T03:40:18;26.90;;;16.85;;
16272;SDS011;8244;50.044;9.006;2023-05-16T03:45:22;25.70;;;18.63;;
16272;SDS011;8244;50.044;9.006;2023-05-16T03:50:23;30.55;;;21.23;;
16272;SDS011;8244;50.044;9.006;2023-05-16T03:55:25;24.05;;;17.92;;
16272;SDS011;8244;50.044;9.006;2023-05-16T04:00:28;29.25;;;20.15;;
16272;SDS011;8244;50.044;9.006;2023-05-16T04:05:32;27.77;;;19.27;;
16272;SDS011;8244;50.044;9.006;2023-05-16T04:10:34;28.02;;;20.13;;
16272;SDS011;8244;50.044;9.006;2023-05-16T04:15:38;27.48;;;20.35;;
16272;SDS011;8244;50.044;9.006;2023-05-16T04:20:40;27.75;;;18.95;;
16272;SDS011;8244;50.044;9.006;2023-05-16T04:25:43;29.45;;;19.80;;
16272;SDS011;8244;50.044;9.006;2023-05-16T04:30:46;26.65;;;19.75;;
16272;SDS011;8244;50.044;9.006;2023-05-16T04:35:48;27.30;;;19.00;;
16272;SDS011;8244;50.044;9.006;2023-05-16T04:40:49;24.58;;;18.00;;
16272;SDS011;8244;50.044;9.006;2023-05-16T04:45:53;26.85;;;19.00;;
16272;SDS011;8244;50.044;9.006;2023-05-16T04:50:55;26.67;;;18.83;;
16272;SDS011;8244;50.044;9.006;2023-05-16T04:55:56;28.83;;;19.42;;
16272;SDS011;8244;50.044;9.006;2023-05-16T05:01:00;27.17;;;19.88;;
16272;SDS011;8244;50.044;9.006;2023-05-16T05:06:02;27.17;;;19.88;;
16272;SDS011;8244;50.044;9.006;2023-05-16T05:11:04;25.90;;;19.25;;
16272;SDS011;8244;50.044;9.006;2023-05-16T05:16:07;26.73;;;20.00;;
16272;SDS011;8244;50.044;9.006;2023-05-16T05:21:08;25.20;;;19.05;;
16272;SDS011;8244;50.044;9.006;2023-05-16T05:26:11;25.85;;;18.63;;
16272;SDS011;8244;50.044;9.006;2023-05-16T05:31:14;31.50;;;20.05;;
16272;SDS011;8244;50.044;9.006;2023-05-16T05:36:16;26.08;;;20.00;;
16272;SDS011;8244;50.044;9.006;2023-05-16T05:41:18;26.77;;;19.45;;
16272;SDS011;8244;50.044;9.006;2023-05-16T05:46:28;28.38;;;19.13;;
16272;SDS011;8244;50.044;9.006;2023-05-16T05:51:37;28.42;;;21.40;;
16272;SDS011;8244;50.044;9.006;2023-05-16T05:56:38;29.30;;;20.20;;
16272;SDS011;8244;50.044;9.006;2023-05-16T06:01:42;31.48;;;21.98;;
16272;SDS011;8244;50.044;9.006;2023-05-16T06:06:44;31.20;;;22.67;;
16272;SDS011;8244;50.044;9.006;2023-05-16T06:11:45;31.02;;;21.73;;
16272;SDS011;8244;50.044;9.006;2023-05-16T06:16:48;28.25;;;22.25;;
16272;SDS011;8244;50.044;9.006;2023-05-16T06:21:50;30.45;;;21.63;;
16272;SDS011;8244;50.044;9.006;2023-05-16T06:26:52;30.63;;;21.15;;
16272;SDS011;8244;50.044;9.006;2023-05-16T06:31:55;26.75;;;18.30;;
16272;SDS011;8244;50.044;9.006;2023-05-16T06:36:57;22.13;;;16.33;;
16272;SDS011;8244;50.044;9.006;2023-05-16T06:41:59;20.30;;;13.70;;
16272;SDS011;8244;50.044;9.006;2023-05-16T06:47:03;12.27;;;8.80;;
16272;SDS011;8244;50.044;9.006;2023-05-16T06:52:05;10.25;;;5.85;;
16272;SDS011;8244;50.044;9.006;2023-05-16T06:57:07;6.82;;;4.80;;
16272;SDS011;8244;50.044;9.006;2023-05-16T07:02:10;8.13;;;5.40;;
16272;SDS011;8244;50.044;9.006;2023-05-16T07:07:12;6.68;;;4.60;;
16272;SDS011;8244;50.044;9.006;2023-05-16T07:12:14;6.15;;;3.65;;
16272;SDS011;8244;50.044;9.006;2023-05-16T07:17:17;5.28;;;3.70;;
16272;SDS011;8244;50.044;9.006;2023-05-16T07:22:19;6.90;;;4.53;;
16272;SDS011;8244;50.044;9.006;2023-05-16T07:27:21;5.00;;;3.90;;
16272;SDS011;8244;50.044;9.006;2023-05-16T07:32:24;7.57;;;4.28;;
16272;SDS011;8244;50.044;9.006;2023-05-16T07:37:25;5.78;;;4.20;;
16272;SDS011;8244;50.044;9.006;2023-05-16T07:42:27;6.00;;;4.57;;
16272;SDS011;8244;50.044;9.006;2023-05-16T07:47:30;6.45;;;4.38;;
16272;SDS011;8244;50.044;9.006;2023-05-16T07:52:32;7.28;;;4.18;;
16272;SDS011;8244;50.044;9.006;2023-05-16T07:57:34;5.80;;;3.72;;
16272;SDS011;8244;50.044;9.006;2023-05-16T08:02:37;5.60;;;3.88;;
16272;SDS011;8244;50.044;9.006;2023-05-16T08:07:39;3.95;;;3.13;;
16272;SDS011;8244;50.044;9.006;2023-05-16T08:12:40;6.95;;;3.30;;
16272;SDS011;8244;50.044;9.006;2023-05-16T08:17:43;4.93;;;3.30;;
16272;SDS011;8244;50.044;9.006;2023-05-16T08:22:45;7.07;;;3.63;;
16272;SDS011;8244;50.044;9.006;2023-05-16T08:27:47;2.08;;;1.75;;
16272;SDS011;8244;50.044;9.006;2023-05-16T08:32:51;1.38;;;1.23;;
16272;SDS011;8244;50.044;9.006;2023-05-16T08:37:53;2.20;;;1.30;;
16272;SDS011;8244;50.044;9.006;2023-05-16T08:42:54;1.98;;;1.15;;
16272;SDS011;8244;50.044;9.006;2023-05-16T08:47:59;1.73;;;1.17;;
16272;SDS011;8244;50.044;9.006;2023-05-16T08:53:03;2.00;;;1.38;;
16272;SDS011;8244;50.044;9.006;2023-05-16T08:58:06;4.80;;;1.33;;
16272;SDS011;8244;50.044;9.006;2023-05-16T09:03:11;6.60;;;1.50;;
16272;SDS011;8244;50.044;9.006;2023-05-16T09:08:13;5.40;;;1.50;;
16272;SDS011;8244;50.044;9.006;2023-05-16T09:13:15;3.25;;;1.60;;
16272;SDS011;8244;50.044;9.006;2023-05-16T09:18:18;5.95;;;1.90;;
16272;SDS011;8244;50.044;9.006;2023-05-16T09:23:22;8.23;;;1.80;;
16272;SDS011;8244;50.044;9.006;2023-05-16T09:28:25;4.53;;;1.60;;
16272;SDS011;8244;50.044;9.006;2023-05-16T09:33:28;5.13;;;1.50;;
16272;SDS011;8244;50.044;9.006;2023-05-16T09:38:30;6.93;;;1.80;;
16272;SDS011;8244;50.044;9.006;2023-05-16T09:43:31;5.93;;;2.00;;
16272;SDS011;8244;50.044;9.006;2023-05-16T09:48:34;5.97;;;2.10;;
16272;SDS011;8244;50.044;9.006;2023-05-16T09:53:36;8.63;;;1.83;;
16272;SDS011;8244;50.044;9.006;2023-05-16T09:58:39;8.48;;;2.40;;
16272;SDS011;8244;50.044;9.006;2023-05-16T10:03:43;5.63;;;2.00;;
16272;SDS011;8244;50.044;9.006;2023-05-16T10:08:45;8.98;;;2.00;;
16272;SDS011;8244;50.044;9.006;2023-05-16T10:13:48;7.72;;;2.17;;
16272;SDS011;8244;50.044;9.006;2023-05-16T10:18:53;8.10;;;2.22;;
16272;SDS011;8244;50.044;9.006;2023-05-16T10:23:56;5.30;;;2.20;;
16272;SDS011;8244;50.044;9.006;2023-05-16T10:29:01;6.63;;;2.00;;
16272;SDS011;8244;50.044;9.006;2023-05-16T10:34:05;8.13;;;2.30;;
16272;SDS011;8244;50.044;9.006;2023-05-16T10:39:07;9.00;;;2.10;;
16272;SDS011;8244;50.044;9.006;2023-05-16T10:44:11;9.45;;;2.55;;
16272;SDS011;8244;50.044;9.006;2023-05-16T10:49:22;6.57;;;2.03;;
16272;SDS011;8244;50.044;9.006;2023-05-16T10:54:32;8.77;;;2.30;;
16272;SDS011;8244;50.044;9.006;2023-05-16T10:59:42;6.28;;;2.00;;
16272;SDS011;8244;50.044;9.006;2023-05-16T11:04:47;5.05;;;2.03;;
16272;SDS011;8244;50.044;9.006;2023-05-16T11:10:00;6.28;;;2.20;;
16272;SDS011;8244;50.044;9.006;2023-05-16T11:15:16;7.05;;;2.03;;
16272;SDS011;8244;50.044;9.006;2023-05-16T11:20:25;7.97;;;2.00;;
16272;SDS011;8244;50.044;9.006;2023-05-16T11:25:33;6.70;;;2.20;;
16272;SDS011;8244;50.044;9.006;2023-05-16T11:30:41;8.25;;;2.15;;
16272;SDS011;8244;50.044;9.006;2023-05-16T11:35:47;9.57;;;2.03;;
16272;SDS011;8244;50.044;9.006;2023-05-16T11:41:04;7.40;;;2.00;;
16272;SDS011;8244;50.044;9.006;2023-05-16T11:46:09;8.23;;;2.10;;
16272;SDS011;8244;50.044;9.006;2023-05-16T11:51:14;8.82;;;2.00;;
16272;SDS011;8244;50.044;9.006;2023-05-16T11:56:19;8.77;;;2.20;;
16272;SDS011;8244;50.044;9.006;2023-05-16T12:01:22;6.93;;;1.90;;
16272;SDS011;8244;50.044;9.006;2023-05-16T12:06:25;6.90;;;2.08;;
16272;SDS011;8244;50.044;9.006;2023-05-16T12:11:30;7.10;;;1.80;;
16272;SDS011;8244;50.044;9.006;2023-05-16T12:16:31;4.50;;;1.80;;
16272;SDS011;8244;50.044;9.006;2023-05-16T12:21:37;8.70;;;1.80;;
16272;SDS011;8244;50.044;9.006;2023-05-16T12:26:39;8.35;;;2.00;;
16272;SDS011;8244;50.044;9.006;2023-05-16T12:31:42;7.15;;;1.73;;
16272;SDS011;8244;50.044;9.006;2023-05-16T12:36:46;7.10;;;1.50;;
16272;SDS011;8244;50.044;9.006;2023-05-16T12:41:51;5.70;;;1.90;;
16272;SDS011;8244;50.044;9.006;2023-05-16T12:46:53;9.18;;;2.10;;
16272;SDS011;8244;50.044;9.006;2023-05-16T12:51:59;6.47;;;1.70;;
16272;SDS011;8244;50.044;9.006;2023-05-16T12:57:04;8.90;;;1.90;;
16272;SDS011;8244;50.044;9.006;2023-05-16T13:02:09;9.20;;;2.03;;
16272;SDS011;8244;50.044;9.006;2023-05-16T13:07:12;11.10;;;2.10;;
16272;SDS011;8244;50.044;9.006;2023-05-16T13:12:14;5.47;;;1.75;;
16272;SDS011;8244;50.044;9.006;2023-05-16T13:17:15;5.45;;;1.60;;
16272;SDS011;8244;50.044;9.006;2023-05-16T13:22:18;4.65;;;1.50;;
16272;SDS011;8244;50.044;9.006;2023-05-16T13:27:20;4.05;;;1.70;;
16272;SDS011;8244;50.044;9.006;2023-05-16T13:32:22;6.65;;;1.80;;
16272;SDS011;8244;50.044;9.006;2023-05-16T13:37:25;4.65;;;1.58;;
16272;SDS011;8244;50.044;9.006;2023-05-16T13:42:27;3.58;;;1.52;;
16272;SDS011;8244;50.044;9.006;2023-05-16T13:47:28;5.18;;;1.60;;
16272;SDS011;8244;50.044;9.006;2023-05-16T13:52:40;5.90;;;1.63;;
16272;SDS011;8244;50.044;9.006;2023-05-16T13:57:42;5.20;;;1.70;;
16272;SDS011;8244;50.044;9.006;2023-05-16T14:02:44;4.60;;;1.40;;
16272;SDS011;8244;50.044;9.006;2023-05-16T14:07:48;3.50;;;1.40;;
16272;SDS011;8244;50.044;9.006;2023-05-16T14:12:50;4.32;;;1.35;;
16272;SDS011;8244;50.044;9.006;2023-05-16T14:17:52;4.95;;;1.60;;
16272;SDS011;8244;50.044;9.006;2023-05-16T14:22:55;3.85;;;1.50;;
16272;SDS011;8244;50.044;9.006;2023-05-16T14:27:56;8.32;;;1.60;;
16272;SDS011;8244;50.044;9.006;2023-05-16T14:32:58;7.00;;;1.67;;
16272;SDS011;8244;50.044;9.006;2023-05-16T14:38:04;5.68;;;1.55;;
16272;SDS011;8244;50.044;9.006;2023-05-16T14:43:06;6.55;;;1.35;;
16272;SDS011;8244;50.044;9.006;2023-05-16T14:48:08;7.53;;;1.65;;
16272;SDS011;8244;50.044;9.006;2023-05-16T14:53:11;4.18;;;1.40;;
16272;SDS011;8244;50.044;9.006;2023-05-16T14:58:12;10.93;;;2.10;;
16272;SDS011;8244;50.044;9.006;2023-05-16T15:03:15;6.32;;;1.50;;
16272;SDS011;8244;50.044;9.006;2023-05-16T15:08:18;5.15;;;1.50;;
16272;SDS011;8244;50.044;9.006;2023-05-16T15:13:19;5.78;;;1.38;;
16272;SDS011;8244;50.044;9.006;2023-05-16T15:18:21;5.55;;;1.50;;
16272;SDS011;8244;50.044;9.006;2023-05-16T15:23:24;4.57;;;1.50;;
16272;SDS011;8244;50.044;9.006;2023-05-16T15:28:26;3.45;;;1.50;;
16272;SDS011;8244;50.044;9.006;2023-05-16T15:33:28;7.65;;;1.77;;
16272;SDS011;8244;50.044;9.006;2023-05-16T15:38:31;5.57;;;1.50;;
16272;SDS011;8244;50.044;9.006;2023-05-16T15:43:33;2.80;;;1.20;;
16272;SDS011;8244;50.044;9.006;2023-05-16T15:48:35;6.25;;;1.60;;
16272;SDS011;8244;50.044;9.006;2023-05-16T15:53:38;4.55;;;1.08;;
16272;SDS011;8244;50.044;9.006;2023-05-16T15:58:40;5.70;;;1.60;;
16272;SDS011;8244;50.044;9.006;2023-05-16T16:03:45;3.97;;;1.20;;
16272;SDS011;8244;50.044;9.006;2023-05-16T16:08:49;4.75;;;1.50;;
16272;SDS011;8244;50.044;9.006;2023-05-16T16:13:50;3.22;;;1.33;;
16272;SDS011;8244;50.044;9.006;2023-05-16T16:18:52;4.88;;;1.60;;
16272;SDS011;8244;50.044;9.006;2023-05-16T16:23:55;4.35;;;1.40;;
16272;SDS011;8244;50.044;9.006;2023-05-16T16:28:57;5.88;;;1.52;;
16272;SDS011;8244;50.044;9.006;2023-05-16T16:34:08;3.15;;;1.15;;
16272;SDS011;8244;50.044;9.006;2023-05-16T16:39:12;7.72;;;1.48;;
16272;SDS011;8244;50.044;9.006;2023-05-16T16:44:14;5.80;;;1.20;;
16272;SDS011;8244;50.044;9.006;2023-05-16T16:49:16;5.38;;;1.27;;
16272;SDS011;8244;50.044;9.006;2023-05-16T16:54:26;5.55;;;1.40;;
16272;SDS011;8244;50.044;9.006;2023-05-16T16:59:29;4.57;;;1.40;;
16272;SDS011;8244;50.044;9.006;2023-05-16T17:04:30;4.07;;;1.15;;
16272;SDS011;8244;50.044;9.006;2023-05-16T17:09:35;3.65;;;1.30;;
16272;SDS011;8244;50.044;9.006;2023-05-16T17:14:38;2.60;;;1.13;;
16272;SDS011;8244;50.044;9.006;2023-05-16T17:19:41;4.80;;;1.77;;
16272;SDS011;8244;50.044;9.006;2023-05-16T17:24:47;4.20;;;1.27;;
16272;SDS011;8244;50.044;9.006;2023-05-16T17:29:49;3.92;;;1.30;;
16272;SDS011;8244;50.044;9.006;2023-05-16T17:35:02;3.33;;;1.55;;
16272;SDS011;8244;50.044;9.006;2023-05-16T17:40:07;2.95;;;1.20;;
16272;SDS011;8244;50.044;9.006;2023-05-16T17:45:16;4.97;;;1.30;;
16272;SDS011;8244;50.044;9.006;2023-05-16T17:50:18;5.22;;;1.40;;
16272;SDS011;8244;50.044;9.006;2023-05-16T17:55:23;5.30;;;1.85;;
16272;SDS011;8244;50.044;9.006;2023-05-16T18:00:25;5.32;;;1.80;;
16272;SDS011;8244;50.044;9.006;2023-05-16T18:05:27;3.35;;;1.40;;
16272;SDS011;8244;50.044;9.006;2023-05-16T18:10:30;3.42;;;1.15;;
16272;SDS011;8244;50.044;9.006;2023-05-16T18:15:33;5.03;;;1.65;;
16272;SDS011;8244;50.044;9.006;2023-05-16T18:20:37;4.25;;;1.30;;
16272;SDS011;8244;50.044;9.006;2023-05-16T18:25:42;8.75;;;2.00;;
16272;SDS011;8244;50.044;9.006;2023-05-16T18:30:43;4.50;;;1.40;;
16272;SDS011;8244;50.044;9.006;2023-05-16T18:35:47;4.97;;;1.88;;
16272;SDS011;8244;50.044;9.006;2023-05-16T18:40:50;2.63;;;1.33;;
16272;SDS011;8244;50.044;9.006;2023-05-16T18:45:52;5.20;;;1.45;;
16272;SDS011;8244;50.044;9.006;2023-05-16T18:50:54;3.72;;;1.60;;
16272;SDS011;8244;50.044;9.006;2023-05-16T18:55:57;4.82;;;1.20;;
16272;SDS011;8244;50.044;9.006;2023-05-16T19:00:59;5.47;;;1.27;;
16272;SDS011;8244;50.044;9.006;2023-05-16T19:06:01;5.78;;;1.50;;
16272;SDS011;8244;50.044;9.006;2023-05-16T19:11:04;5.78;;;1.30;;
16272;SDS011;8244;50.044;9.006;2023-05-16T19:16:06;3.28;;;1.25;;
16272;SDS011;8244;50.044;9.006;2023-05-16T19:21:08;3.53;;;1.27;;
16272;SDS011;8244;50.044;9.006;2023-05-16T19:26:13;3.17;;;1.52;;
16272;SDS011;8244;50.044;9.006;2023-05-16T19:31:15;3.25;;;1.30;;
16272;SDS011;8244;50.044;9.006;2023-05-16T19:36:17;6.90;;;1.50;;
16272;SDS011;8244;50.044;9.006;2023-05-16T19:41:20;4.63;;;1.05;;
16272;SDS011;8244;50.044;9.006;2023-05-16T19:46:23;3.90;;;1.38;;
16272;SDS011;8244;50.044;9.006;2023-05-16T19:51:25;2.28;;;1.30;;
16272;SDS011;8244;50.044;9.006;2023-05-16T19:56:28;3.53;;;1.30;;
16272;SDS011;8244;50.044;9.006;2023-05-16T20:01:30;4.28;;;1.30;;
16272;SDS011;8244;50.044;9.006;2023-05-16T20:06:31;4.60;;;1.30;;
16272;SDS011;8244;50.044;9.006;2023-05-16T20:11:34;3.28;;;1.30;;
16272;SDS011;8244;50.044;9.006;2023-05-16T20:16:36;3.75;;;1.60;;
16272;SDS011;8244;50.044;9.006;2023-05-16T20:21:38;7.68;;;1.42;;
16272;SDS011;8244;50.044;9.006;2023-05-16T20:26:41;6.15;;;1.70;;
16272;SDS011;8244;50.044;9.006;2023-05-16T20:31:43;7.70;;;1.73;;
16272;SDS011;8244;50.044;9.006;2023-05-16T20:36:45;6.43;;;1.60;;
16272;SDS011;8244;50.044;9.006;2023-05-16T20:41:48;4.30;;;1.75;;
16272;SDS011;8244;50.044;9.006;2023-05-16T20:46:50;3.17;;;1.77;;
16272;SDS011;8244;50.044;9.006;2023-05-16T20:51:51;7.90;;;1.73;;
16272;SDS011;8244;50.044;9.006;2023-05-16T20:56:54;6.38;;;1.65;;
16272;SDS011;8244;50.044;9.006;2023-05-16T21:01:56;5.68;;;1.40;;
16272;SDS011;8244;50.044;9.006;2023-05-16T21:06:58;4.78;;;1.60;;
16272;SDS011;8244;50.044;9.006;2023-05-16T21:12:01;5.05;;;1.50;;
16272;SDS011;8244;50.044;9.006;2023-05-16T21:17:03;5.07;;;1.80;;
16272;SDS011;8244;50.044;9.006;2023-05-16T21:22:05;5.03;;;1.50;;
16272;SDS011;8244;50.044;9.006;2023-05-16T21:27:08;5.40;;;1.83;;
16272;SDS011;8244;50.044;9.006;2023-05-16T21:32:10;4.72;;;1.95;;
16272;SDS011;8244;50.044;9.006;2023-05-16T21:37:14;6.53;;;2.05;;
16272;SDS011;8244;50.044;9.006;2023-05-16T21:42:17;4.07;;;1.70;;
16272;SDS011;8244;50.044;9.006;2023-05-16T21:47:20;6.90;;;1.67;;
16272;SDS011;8244;50.044;9.006;2023-05-16T21:52:22;4.22;;;1.77;;
16272;SDS011;8244;50.044;9.006;2023-05-16T21:57:26;8.13;;;1.70;;
16272;SDS011;8244;50.044;9.006;2023-05-16T22:02:28;3.67;;;1.40;;
16272;SDS011;8244;50.044;9.006;2023-05-16T22:07:30;4.82;;;1.50;;
16272;SDS011;8244;50.044;9.006;2023-05-16T22:12:33;4.65;;;2.03;;
16272;SDS011;8244;50.044;9.006;2023-05-16T22:17:35;3.65;;;1.50;;
16272;SDS011;8244;50.044;9.006;2023-05-16T22:22:36;4.20;;;1.60;;
16272;SDS011;8244;50.044;9.006;2023-05-16T22:27:39;4.57;;;2.00;;
16272;SDS011;8244;50.044;9.006;2023-05-16T22:32:42;5.00;;;1.80;;
16272;SDS011;8244;50.044;9.006;2023-05-16T22:37:45;4.38;;;1.58;;
16272;SDS011;8244;50.044;9.006;2023-05-16T22:42:48;5.03;;;1.63;;
16272;SDS011;8244;50.044;9.006;2023-05-16T22:47:50;6.68;;;1.67;;
16272;SDS011;8244;50.044;9.006;2023-05-16T22:52:52;6.28;;;1.70;;
16272;SDS011;8244;50.044;9.006;2023-05-16T22:57:55;4.15;;;1.60;;
16272;SDS011;8244;50.044;9.006;2023-05-16T23:02:58;4.22;;;1.75;;
16272;SDS011;8244;50.044;9.006;2023-05-16T23:08:00;5.03;;;1.60;;
16272;SDS011;8244;50.044;9.006;2023-05-16T23:13:04;7.57;;;1.65;;
16272;SDS011;8244;50.044;9.006;2023-05-16T23:18:06;4.45;;;1.70;;
16272;SDS011;8244;50.044;9.006;2023-05-16T23:23:08;3.40;;;1.40;;
16272;SDS011;8244;50.044;9.006;2023-05-16T23:28:11;5.13;;;1.70;;
16272;SDS011;8244;50.044;9.006;2023-05-16T23:33:13;7.07;;;1.70;;
16272;SDS011;8244;50.044;9.006;2023-05-16T23:38:15;3.60;;;1.50;;
16272;SDS011;8244;50.044;9.006;2023-05-16T23:43:18;7.68;;;2.00;;
16272;SDS011;8244;50.044;9.006;2023-05-16T23:48:20;4.93;;;2.17;;
16272;SDS011;8244;50.044;9.006;2023-05-16T23:53:22;5.93;;;1.88;;
16272;SDS011;8244;50.044;9.006;2023-05-16T23:58:29;4.35;;;1.70;;
